createdAt,value
2023-05-10T00:03:11.056Z,14.90
2023-05-10T00:08:13.253Z,14.90
2023-05-10T00:13:15.395Z,14.90
2023-05-10T00:18:17.516Z,14.80
2023-05-10T00:23:19.478Z,14.80
2023-05-10T00:28:21.593Z,14.70
2023-05-10T00:33:23.714Z,14.70
2023-05-10T00:38:25.784Z,14.70
2023-05-10T00:43:28.046Z,14.60
2023-05-10T00:48:30.613Z,14.60
2023-05-10T00:53:34.013Z,14.50
2023-05-10T00:58:36.067Z,14.60
2023-05-10T01:03:38.414Z,14.60
2023-05-10T01:08:40.838Z,14.70
2023-05-10T01:13:48.890Z,14.70
2023-05-10T01:18:52.271Z,14.70
2023-05-10T01:24:37.361Z,14.70
2023-05-10T01:30:14.727Z,14.70
2023-05-10T01:35:44.908Z,14.70
2023-05-10T01:41:10.019Z,14.60
2023-05-10T01:46:18.782Z,14.40
2023-05-10T01:51:32.382Z,14.40
2023-05-10T01:56:36.829Z,14.40
2023-05-10T02:01:39.950Z,14.40
2023-05-10T02:06:44.466Z,14.40
2023-05-10T02:11:49.050Z,14.30
2023-05-10T02:16:52.735Z,14.40
2023-05-10T02:21:56.284Z,14.40
2023-05-10T02:26:58.918Z,14.40
2023-05-10T02:32:01.931Z,14.40
2023-05-10T02:37:04.571Z,14.40
2023-05-10T02:42:08.891Z,14.30
2023-05-10T02:47:12.044Z,14.30
2023-05-10T02:52:20.467Z,14.40
2023-05-10T02:57:28.476Z,14.40
2023-05-10T03:02:32.050Z,14.40
2023-05-10T03:07:35.346Z,14.40
2023-05-10T03:13:14.338Z,14.30
2023-05-10T03:18:24.018Z,14.30
2023-05-10T03:23:35.242Z,14.20
2023-05-10T03:28:38.625Z,14.10
2023-05-10T03:33:51.457Z,14.10
2023-05-10T03:38:58.787Z,14.00
2023-05-10T03:44:00.948Z,14.10
2023-05-10T03:49:04.674Z,14.00
2023-05-10T03:54:06.819Z,14.10
2023-05-10T03:59:09.964Z,13.80
2023-05-10T04:04:12.624Z,13.80
2023-05-10T04:09:15.147Z,13.70
2023-05-10T04:14:17.838Z,13.70
2023-05-10T04:19:20.095Z,13.60
2023-05-10T04:24:22.131Z,13.70
2023-05-10T04:29:24.190Z,13.70
2023-05-10T04:34:26.658Z,13.80
2023-05-10T04:39:28.670Z,13.80
2023-05-10T04:44:30.990Z,13.80
2023-05-10T04:49:33.420Z,13.80
2023-05-10T04:54:35.914Z,13.90
2023-05-10T04:59:38.767Z,13.80
2023-05-10T05:04:40.804Z,13.80
2023-05-10T05:09:42.841Z,13.80
2023-05-10T05:14:44.872Z,13.70
2023-05-10T05:19:46.991Z,13.60
2023-05-10T05:24:50.135Z,13.60
2023-05-10T05:29:54.092Z,13.50
2023-05-10T05:34:56.198Z,13.50
2023-05-10T05:39:58.276Z,13.40
2023-05-10T05:51:12.862Z,13.40
2023-05-10T05:56:15.037Z,13.40
2023-05-10T06:01:17.587Z,13.50
2023-05-10T06:06:19.611Z,13.60
2023-05-10T06:11:22.468Z,13.50
2023-05-10T06:16:25.550Z,13.50
2023-05-10T06:21:27.630Z,13.60
2023-05-10T06:26:29.866Z,13.60
2023-05-10T06:31:31.902Z,13.60
2023-05-10T06:36:33.926Z,13.60
2023-05-10T06:41:35.947Z,13.80
2023-05-10T06:46:37.995Z,13.90
2023-05-10T06:51:40.089Z,14.00
2023-05-10T06:56:42.514Z,14.10
2023-05-10T07:01:44.691Z,14.00
2023-05-10T07:06:47.774Z,14.10
2023-05-10T07:11:49.895Z,14.10
2023-05-10T07:16:52.007Z,14.20
2023-05-10T07:21:54.059Z,14.20
2023-05-10T07:26:56.093Z,14.30
2023-05-10T07:31:59.002Z,14.20
2023-05-10T07:37:01.734Z,14.10
2023-05-10T07:42:04.073Z,14.30
2023-05-10T07:47:06.105Z,14.20
2023-05-10T07:52:08.125Z,14.20
2023-05-10T07:57:10.352Z,14.10
2023-05-10T08:02:12.415Z,14.10
2023-05-10T08:07:14.467Z,14.10
2023-05-10T08:12:16.897Z,14.10
2023-05-10T08:17:20.072Z,14.20
2023-05-10T08:22:22.585Z,14.30
2023-05-10T08:27:24.605Z,14.20
2023-05-10T08:32:26.722Z,14.10
2023-05-10T08:37:31.399Z,14.30
2023-05-10T08:42:37.283Z,14.40
2023-05-10T08:47:40.219Z,14.40
2023-05-10T08:52:42.964Z,14.40
2023-05-10T08:57:45.212Z,14.60
2023-05-10T09:02:47.286Z,14.60
2023-05-10T09:07:49.356Z,14.30
2023-05-10T09:12:52.282Z,14.10
2023-05-10T09:17:56.144Z,14.10
2023-05-10T09:22:58.266Z,13.90
2023-05-10T09:28:00.739Z,13.90
2023-05-10T09:33:03.607Z,13.90
2023-05-10T09:38:06.598Z,14.00
2023-05-10T09:43:09.630Z,14.00
2023-05-10T09:48:11.776Z,14.00
2023-05-10T09:53:16.804Z,14.10
2023-05-10T09:58:18.867Z,14.10
2023-05-10T10:03:22.227Z,14.20
2023-05-10T10:08:24.463Z,14.20
2023-05-10T10:13:26.460Z,14.60
2023-05-10T10:18:29.837Z,15.80
2023-05-10T10:23:31.938Z,17.00
2023-05-10T10:28:45.318Z,16.40
2023-05-10T10:34:22.066Z,15.90
2023-05-10T10:39:28.595Z,15.50
2023-05-10T10:44:34.890Z,15.20
2023-05-10T10:49:40.136Z,15.80
2023-05-10T10:54:43.071Z,15.60
2023-05-10T10:59:45.610Z,15.50
2023-05-10T11:04:48.008Z,16.60
2023-05-10T11:09:50.365Z,16.90
2023-05-10T11:14:52.676Z,16.40
2023-05-10T11:20:11.615Z,16.60
2023-05-10T11:25:14.092Z,16.80
2023-05-10T11:30:16.486Z,16.70
2023-05-10T11:35:18.795Z,16.90
2023-05-10T11:40:24.854Z,16.40
2023-05-10T11:45:27.242Z,15.80
2023-05-10T11:50:30.012Z,15.00
2023-05-10T11:55:34.894Z,14.80
2023-05-10T12:00:37.067Z,14.60
2023-05-10T12:05:40.618Z,14.70
2023-05-10T12:10:44.332Z,14.60
2023-05-10T12:15:47.000Z,14.40
2023-05-10T12:20:49.054Z,14.50
2023-05-10T12:25:52.545Z,14.80
2023-05-10T12:30:55.448Z,14.80
2023-05-10T12:36:00.624Z,14.80
2023-05-10T12:41:05.001Z,14.70
2023-05-10T12:46:09.648Z,14.70
2023-05-10T12:51:14.215Z,15.00
2023-05-10T12:56:16.405Z,15.30
2023-05-10T13:01:18.427Z,15.60
2023-05-10T13:06:20.780Z,16.00
2023-05-10T13:11:22.878Z,16.20
2023-05-10T13:16:24.962Z,16.20
2023-05-10T13:21:27.082Z,16.50
2023-05-10T13:26:29.436Z,16.80
2023-05-10T13:31:31.595Z,16.60
2023-05-10T13:36:33.758Z,16.40
2023-05-10T13:41:35.821Z,16.20
2023-05-10T13:46:39.018Z,16.00
2023-05-10T13:51:41.112Z,15.80
2023-05-10T13:56:43.649Z,16.00
2023-05-10T14:01:45.822Z,16.70
2023-05-10T14:06:47.907Z,18.00
2023-05-10T14:11:49.976Z,18.70
2023-05-10T14:16:51.996Z,18.60
2023-05-10T14:21:54.082Z,17.60
2023-05-10T14:26:56.347Z,16.90
2023-05-10T14:31:58.438Z,16.30
2023-05-10T14:37:00.547Z,16.20
2023-05-10T14:42:03.862Z,16.40
2023-05-10T14:47:05.851Z,16.40
2023-05-10T14:52:07.988Z,16.60
2023-05-10T14:57:10.014Z,17.10
2023-05-10T15:02:12.378Z,17.30
2023-05-10T15:07:17.454Z,17.80
2023-05-10T15:12:20.152Z,17.80
2023-05-10T15:17:22.155Z,17.10
2023-05-10T15:22:24.241Z,16.70
2023-05-10T15:27:27.189Z,16.60
2023-05-10T15:32:30.374Z,16.60
2023-05-10T15:37:32.462Z,16.80
2023-05-10T15:42:34.603Z,17.10
2023-05-10T15:47:36.717Z,17.10
2023-05-10T15:52:38.790Z,17.80
2023-05-10T15:57:42.640Z,18.50
2023-05-10T16:02:45.023Z,18.80
2023-05-10T16:07:47.802Z,18.70
2023-05-10T16:12:49.872Z,19.80
2023-05-10T16:17:52.033Z,20.30
2023-05-10T16:22:54.325Z,20.00
2023-05-10T16:27:56.582Z,19.50
2023-05-10T16:32:58.911Z,19.10
2023-05-10T16:38:01.225Z,18.80
2023-05-10T16:43:03.376Z,18.70
2023-05-10T16:48:06.035Z,19.70
2023-05-10T16:53:08.090Z,19.60
2023-05-10T16:58:10.130Z,18.90
2023-05-10T17:03:12.607Z,18.50
2023-05-10T17:08:14.754Z,19.60
2023-05-10T17:13:17.414Z,21.30
2023-05-10T17:18:39.731Z,23.10
2023-05-10T17:23:44.339Z,22.20
2023-05-10T17:28:46.543Z,21.70
2023-05-10T17:33:48.579Z,21.20
2023-05-10T17:38:50.772Z,20.10
2023-05-10T17:43:53.286Z,19.10
2023-05-10T17:48:55.261Z,18.20
2023-05-10T17:53:57.279Z,17.30
2023-05-10T17:58:59.428Z,16.80
2023-05-10T18:04:01.472Z,16.60
2023-05-10T18:09:05.096Z,16.40
2023-05-10T18:14:08.181Z,16.20
2023-05-10T18:19:12.998Z,16.10
2023-05-10T18:24:16.714Z,16.00
2023-05-10T18:29:20.143Z,15.90
2023-05-10T18:34:22.176Z,15.70
2023-05-10T18:39:25.120Z,15.50
2023-05-10T18:44:27.366Z,15.50
2023-05-10T18:49:29.520Z,15.40
2023-05-10T18:54:31.531Z,15.30
2023-05-10T18:59:34.071Z,15.10
2023-05-10T19:04:36.253Z,14.90
2023-05-10T19:09:38.513Z,14.80
2023-05-10T19:14:40.829Z,14.70
2023-05-10T19:19:44.282Z,14.70
2023-05-10T19:24:46.444Z,14.70
2023-05-10T19:29:48.849Z,14.60
2023-05-10T19:34:50.999Z,14.70
2023-05-10T19:39:53.502Z,14.50
2023-05-10T19:44:55.608Z,14.50
2023-05-10T19:49:57.909Z,14.50
2023-05-10T19:55:00.258Z,14.40
2023-05-10T20:00:03.340Z,14.40
2023-05-10T20:05:13.507Z,14.20
2023-05-10T20:10:19.359Z,14.00
2023-05-10T20:15:23.374Z,14.10
2023-05-10T20:20:25.683Z,14.10
2023-05-10T20:25:27.898Z,14.10
2023-05-10T20:30:31.314Z,14.00
2023-05-10T20:35:34.379Z,13.90
2023-05-10T20:40:36.846Z,13.80
2023-05-10T20:45:39.255Z,13.60
2023-05-10T20:50:41.348Z,13.30
2023-05-10T20:55:43.448Z,13.20
2023-05-10T21:00:45.558Z,13.10
2023-05-10T21:05:47.573Z,13.00
2023-05-10T21:10:49.770Z,13.00
2023-05-10T21:15:51.880Z,13.00
2023-05-10T21:20:54.061Z,12.90
2023-05-10T21:25:56.104Z,12.70
2023-05-10T21:30:58.558Z,12.70
2023-05-10T21:36:00.868Z,12.70
2023-05-10T21:41:07.106Z,12.70
2023-05-10T21:46:09.462Z,12.60
2023-05-10T21:51:12.114Z,12.50
2023-05-10T21:56:14.148Z,12.60
2023-05-10T22:01:17.265Z,12.60
2023-05-10T22:06:19.330Z,12.60
2023-05-10T22:11:21.974Z,12.60
2023-05-10T22:16:24.389Z,12.60
2023-05-10T22:21:26.859Z,12.50
2023-05-10T22:26:28.828Z,12.60
2023-05-10T22:31:31.697Z,12.70
2023-05-10T22:36:33.733Z,12.70
2023-05-10T22:41:35.772Z,12.80
2023-05-10T22:46:38.114Z,12.80
2023-05-10T22:51:40.253Z,12.90
2023-05-10T22:56:42.764Z,12.90
2023-05-10T23:01:44.821Z,13.00
2023-05-10T23:06:46.830Z,12.90
2023-05-10T23:11:48.835Z,12.90
2023-05-10T23:16:51.009Z,12.90
2023-05-10T23:21:53.049Z,12.80
2023-05-10T23:26:55.293Z,12.90
2023-05-10T23:31:57.502Z,12.80
2023-05-10T23:36:59.613Z,12.70
2023-05-10T23:42:01.652Z,12.60
2023-05-10T23:47:03.901Z,12.60
2023-05-10T23:52:05.863Z,12.60
2023-05-10T23:57:08.042Z,12.50
